createdAt,value
2018-08-30T00:00:48.990Z,22.35
2018-08-30T00:01:52.337Z,22.50
2018-08-30T00:02:55.745Z,20.70
2018-08-30T00:03:59.393Z,23.83
2018-08-30T00:05:02.950Z,21.27
2018-08-30T00:06:06.626Z,21.80
2018-08-30T00:07:10.244Z,21.97
2018-08-30T00:08:13.783Z,19.05
2018-08-30T00:09:17.264Z,24.12
2018-08-30T00:10:20.770Z,19.32
2018-08-30T00:11:24.332Z,23.67
2018-08-30T00:12:27.759Z,23.80
2018-08-30T00:13:31.157Z,23.10
2018-08-30T00:14:34.584Z,22.95
2018-08-30T00:15:38.095Z,24.77
2018-08-30T00:16:41.493Z,23.02
2018-08-30T00:17:44.848Z,25.65
2018-08-30T00:18:48.321Z,24.65
2018-08-30T00:19:51.678Z,28.30
2018-08-30T00:20:55.101Z,24.75
2018-08-30T00:21:58.672Z,24.75
2018-08-30T00:23:02.211Z,29.15
2018-08-30T00:24:05.890Z,25.48
2018-08-30T00:25:09.411Z,28.62
2018-08-30T00:26:13.235Z,28.10
2018-08-30T00:27:16.962Z,29.00
2018-08-30T00:28:20.363Z,27.15
2018-08-30T00:29:23.756Z,26.90
2018-08-30T00:30:27.435Z,32.23
2018-08-30T00:31:31.075Z,27.13
2018-08-30T00:32:34.598Z,29.35
2018-08-30T00:33:37.991Z,28.02
2018-08-30T00:34:41.390Z,27.50
2018-08-30T00:35:44.959Z,23.90
2018-08-30T00:36:48.460Z,31.75
2018-08-30T00:37:51.813Z,34.78
2018-08-30T00:38:55.063Z,28.07
2018-08-30T00:39:58.652Z,30.10
2018-08-30T00:41:02.180Z,28.17
2018-08-30T00:42:05.608Z,29.18
2018-08-30T00:43:08.952Z,29.07
2018-08-30T00:44:12.544Z,30.10
2018-08-30T00:45:16.124Z,27.87
2018-08-30T00:46:19.951Z,31.25
2018-08-30T00:47:23.394Z,32.50
2018-08-30T00:48:26.910Z,29.12
2018-08-30T00:49:30.288Z,30.80
2018-08-30T00:50:33.876Z,26.45
2018-08-30T00:51:37.338Z,32.33
2018-08-30T00:52:40.719Z,33.00
2018-08-30T00:53:44.032Z,32.93
2018-08-30T00:54:47.490Z,31.45
2018-08-30T00:55:51.004Z,30.15
2018-08-30T00:56:54.430Z,32.20
2018-08-30T00:57:57.956Z,31.35
2018-08-30T00:59:01.495Z,30.37
2018-08-30T01:00:05.582Z,30.68
2018-08-30T01:01:09.153Z,35.83
2018-08-30T01:02:12.876Z,33.55
2018-08-30T01:03:16.466Z,35.15
2018-08-30T01:04:19.837Z,32.13
2018-08-30T01:05:23.511Z,33.55
2018-08-30T01:06:27.187Z,31.25
2018-08-30T01:07:30.715Z,34.18
2018-08-30T01:08:34.129Z,30.75
2018-08-30T01:09:37.554Z,26.65
2018-08-30T01:10:41.164Z,32.90
2018-08-30T01:11:44.761Z,33.38
2018-08-30T01:12:53.495Z,33.58
2018-08-30T01:13:57.091Z,33.58
2018-08-30T01:15:00.785Z,29.92
2018-08-30T01:16:05.328Z,25.88
2018-08-30T01:17:08.857Z,30.90
2018-08-30T01:18:12.196Z,34.90
2018-08-30T01:19:15.637Z,31.07
2018-08-30T01:20:19.663Z,32.93
2018-08-30T01:21:23.491Z,28.73
2018-08-30T01:22:26.932Z,33.83
2018-08-30T01:23:30.690Z,27.13
2018-08-30T01:24:34.092Z,31.20
2018-08-30T01:25:37.847Z,31.62
2018-08-30T01:26:41.536Z,30.25
2018-08-30T01:27:45.507Z,31.02
2018-08-30T01:28:48.784Z,27.42
2018-08-30T01:29:52.312Z,27.90
2018-08-30T01:30:55.737Z,25.92
2018-08-30T01:31:59.292Z,27.00
2018-08-30T01:33:02.642Z,30.57
2018-08-30T01:34:06.323Z,34.05
2018-08-30T01:35:10.039Z,27.98
2018-08-30T01:36:13.440Z,32.45
2018-08-30T01:37:17.045Z,24.10
2018-08-30T01:38:20.455Z,29.72
2018-08-30T01:39:24.015Z,24.05
2018-08-30T01:40:27.509Z,25.88
2018-08-30T01:41:30.828Z,25.45
2018-08-30T01:42:34.240Z,25.27
2018-08-30T01:43:37.723Z,27.98
2018-08-30T01:44:41.001Z,27.67
2018-08-30T01:45:44.399Z,28.87
2018-08-30T01:46:47.903Z,25.12
2018-08-30T01:47:51.736Z,26.45
2018-08-30T01:48:55.050Z,25.40
2018-08-30T01:49:58.427Z,27.37
2018-08-30T01:51:01.766Z,26.87
2018-08-30T01:52:05.218Z,30.10
2018-08-30T01:53:08.708Z,24.18
2018-08-30T01:54:12.021Z,33.15
2018-08-30T01:55:15.331Z,26.40
2018-08-30T01:56:18.816Z,25.02
2018-08-30T01:57:22.380Z,27.75
2018-08-30T01:58:25.929Z,23.35
2018-08-30T01:59:29.245Z,29.30
2018-08-30T02:00:32.801Z,26.95
2018-08-30T02:01:36.197Z,25.85
2018-08-30T02:02:39.777Z,22.02
2018-08-30T02:03:43.374Z,23.77
2018-08-30T02:04:46.785Z,24.80
2018-08-30T02:05:50.226Z,26.33
2018-08-30T02:06:53.655Z,25.80
2018-08-30T02:07:56.991Z,20.72
2018-08-30T02:09:00.375Z,24.80
2018-08-30T02:10:03.902Z,24.95
2018-08-30T02:11:07.422Z,21.68
2018-08-30T02:12:10.831Z,24.50
2018-08-30T02:13:14.119Z,25.95
2018-08-30T02:14:17.471Z,24.02
2018-08-30T02:15:21.086Z,23.27
2018-08-30T02:16:24.670Z,20.65
2018-08-30T02:17:28.113Z,23.65
2018-08-30T02:18:31.442Z,24.20
2018-08-30T02:19:34.881Z,25.27
2018-08-30T02:20:38.472Z,24.15
2018-08-30T02:21:41.912Z,23.75
2018-08-30T02:22:45.296Z,25.05
2018-08-30T02:23:48.862Z,24.63
2018-08-30T02:24:52.496Z,26.23
2018-08-30T02:25:56.011Z,23.60
2018-08-30T02:26:59.378Z,24.45
2018-08-30T02:28:03.298Z,24.92
2018-08-30T02:29:06.872Z,27.27
2018-08-30T02:30:10.398Z,24.90
2018-08-30T02:31:14.062Z,24.02
2018-08-30T02:32:17.603Z,23.60
2018-08-30T02:33:21.026Z,23.02
2018-08-30T02:34:24.569Z,28.47
2018-08-30T02:35:28.218Z,27.07
2018-08-30T02:36:31.790Z,28.35
2018-08-30T02:37:35.287Z,24.92
2018-08-30T02:38:38.649Z,25.53
2018-08-30T02:39:42.316Z,28.65
2018-08-30T02:40:45.956Z,32.40
2018-08-30T02:41:49.357Z,31.13
2018-08-30T02:42:52.743Z,28.23
2018-08-30T02:43:56.121Z,28.00
2018-08-30T02:44:59.541Z,33.92
2018-08-30T02:46:03.133Z,31.50
2018-08-30T02:47:06.850Z,32.67
2018-08-30T02:48:10.176Z,27.90
2018-08-30T02:49:13.537Z,34.78
2018-08-30T02:50:17.019Z,31.70
2018-08-30T02:51:20.360Z,37.58
2018-08-30T02:52:23.763Z,33.67
2018-08-30T02:53:27.159Z,32.08
2018-08-30T02:54:31.029Z,34.92
2018-08-30T02:55:34.666Z,38.23
2018-08-30T02:56:38.243Z,34.23
2018-08-30T02:57:41.637Z,32.00
2018-08-30T02:58:44.916Z,36.73
2018-08-30T02:59:48.660Z,37.10
2018-08-30T03:00:52.389Z,34.50
2018-08-30T03:01:56.273Z,40.47
2018-08-30T03:02:59.669Z,34.33
2018-08-30T03:04:03.119Z,32.73
2018-08-30T03:05:06.704Z,35.83
2018-08-30T03:06:10.268Z,34.00
2018-08-30T03:07:13.753Z,35.20
2018-08-30T03:08:17.206Z,34.70
2018-08-30T03:09:20.715Z,35.57
2018-08-30T03:10:24.104Z,33.90
2018-08-30T03:11:28.087Z,37.90
2018-08-30T03:12:32.049Z,38.77
2018-08-30T03:13:35.436Z,40.00
2018-08-30T03:14:38.752Z,32.83
2018-08-30T03:15:42.443Z,33.93
2018-08-30T03:16:45.994Z,35.60
2018-08-30T03:17:49.579Z,35.85
2018-08-30T03:18:53.101Z,35.40
2018-08-30T03:19:56.868Z,35.10
2018-08-30T03:21:00.686Z,35.40
2018-08-30T03:22:04.212Z,35.20
2018-08-30T03:23:07.681Z,41.63
2018-08-30T03:24:11.228Z,39.77
2018-08-30T03:25:14.795Z,33.80
2018-08-30T03:26:18.324Z,34.63
2018-08-30T03:27:21.741Z,42.50
2018-08-30T03:28:25.554Z,39.77
2018-08-30T03:29:29.946Z,39.77
2018-08-30T03:30:33.458Z,40.47
2018-08-30T03:31:37.117Z,42.33
2018-08-30T03:32:40.802Z,42.47
2018-08-30T03:33:44.598Z,35.35
2018-08-30T03:34:47.927Z,40.03
2018-08-30T03:35:51.412Z,42.00
2018-08-30T03:36:54.942Z,36.93
2018-08-30T03:37:58.528Z,36.35
2018-08-30T03:39:02.182Z,38.27
2018-08-30T03:40:05.639Z,43.93
2018-08-30T03:41:09.065Z,36.73
2018-08-30T03:42:12.784Z,37.27
2018-08-30T03:43:16.288Z,38.17
2018-08-30T03:44:19.827Z,46.43
2018-08-30T03:45:23.114Z,44.70
2018-08-30T03:46:26.480Z,36.87
2018-08-30T03:47:29.987Z,32.67
2018-08-30T03:48:33.476Z,35.03
2018-08-30T03:49:36.903Z,28.87
2018-08-30T03:50:40.662Z,32.47
2018-08-30T03:51:44.048Z,35.47
2018-08-30T03:52:47.519Z,35.13
2018-08-30T03:53:51.157Z,40.20
2018-08-30T03:54:54.853Z,38.73
2018-08-30T03:55:58.476Z,33.83
2018-08-30T03:57:02.962Z,43.60
2018-08-30T03:58:06.536Z,36.33
2018-08-30T03:59:10.040Z,39.67
2018-08-30T04:00:13.602Z,30.97
2018-08-30T04:01:17.273Z,44.80
2018-08-30T04:10:45.374Z,38.20
2018-08-30T04:11:49.013Z,47.33
2018-08-30T04:12:52.479Z,38.40
2018-08-30T04:18:07.732Z,36.90
2018-08-30T04:20:13.944Z,46.40
2018-08-30T04:26:31.944Z,42.97
2018-08-30T04:27:35.317Z,41.80
2018-08-30T04:30:44.483Z,37.75
2018-08-30T04:31:48.012Z,34.40
2018-08-30T04:32:51.392Z,38.80
2018-08-30T04:33:54.956Z,46.20
2018-08-30T04:34:58.411Z,40.30
2018-08-30T04:36:02.067Z,42.70
2018-08-30T05:30:31.261Z,31.80
2018-08-30T06:28:13.029Z,34.13
2018-08-30T06:29:16.470Z,42.07
2018-08-30T06:30:19.896Z,34.00
2018-08-30T06:31:23.371Z,33.57
2018-08-30T06:32:27.143Z,35.23
2018-08-30T06:33:30.698Z,43.07
2018-08-30T06:34:34.254Z,36.77
2018-08-30T06:35:37.677Z,37.70
2018-08-30T06:36:41.264Z,37.57
2018-08-30T06:37:44.963Z,38.27
2018-08-30T06:38:48.418Z,43.03
2018-08-30T06:39:51.970Z,35.67
2018-08-30T06:40:55.398Z,43.03
2018-08-30T06:41:58.889Z,35.47
2018-08-30T06:43:02.409Z,36.87
2018-08-30T06:44:05.905Z,42.77
2018-08-30T06:45:09.328Z,36.90
2018-08-30T06:46:12.951Z,43.87
2018-08-30T06:47:16.487Z,37.93
2018-08-30T06:48:19.980Z,39.20
2018-08-30T06:50:26.519Z,37.30
2018-08-30T06:51:30.185Z,38.00
2018-08-30T06:52:33.678Z,35.10
2018-08-30T06:53:37.023Z,38.97
2018-08-30T06:54:40.393Z,39.53
2018-08-30T06:55:43.804Z,35.87
2018-08-30T07:20:56.407Z,24.40
2018-08-30T07:21:59.728Z,22.35
2018-08-30T07:24:06.737Z,32.60
2018-08-30T07:26:13.340Z,24.43
2018-08-30T07:27:16.768Z,27.17
2018-08-30T07:28:20.451Z,23.70
2018-08-30T07:29:23.820Z,27.20
2018-08-30T07:30:27.244Z,30.57
2018-08-30T07:31:30.757Z,27.03
2018-08-30T07:32:34.171Z,24.93
2018-08-30T07:33:37.555Z,21.57
2018-08-30T07:34:40.951Z,26.80
2018-08-30T07:35:44.773Z,20.10
2018-08-30T07:36:48.385Z,26.37
2018-08-30T07:37:51.901Z,23.33
2018-08-30T07:38:55.366Z,24.00
2018-08-30T07:39:58.923Z,28.93
2018-08-30T07:41:02.532Z,26.90
2018-08-30T07:42:06.458Z,28.77
2018-08-30T07:43:10.293Z,25.20
2018-08-30T07:44:13.783Z,26.33
2018-08-30T07:45:17.396Z,27.03
2018-08-30T07:46:20.947Z,29.00
2018-08-30T07:47:25.400Z,25.00
2018-08-30T07:53:43.659Z,30.70
2018-08-30T07:54:47.041Z,29.40
2018-08-30T08:03:11.281Z,23.77
2018-08-30T08:04:14.901Z,28.40
2018-08-30T08:06:21.143Z,25.00
2018-08-30T08:16:50.187Z,31.50
2018-08-30T08:17:53.668Z,28.80
2018-08-30T08:18:57.288Z,27.80
2018-08-30T08:20:00.884Z,31.60
2018-08-30T08:21:04.499Z,29.05
2018-08-30T08:22:08.002Z,30.80
2018-08-30T08:23:11.595Z,36.10
2018-08-30T08:24:14.939Z,36.00
2018-08-30T08:25:18.349Z,34.33
2018-08-30T08:26:22.088Z,29.17
2018-08-30T08:27:25.652Z,31.43
2018-08-30T08:28:29.346Z,28.13
2018-08-30T08:29:32.906Z,28.15
2018-08-30T08:30:36.559Z,30.30
2018-08-30T08:31:40.034Z,36.13
2018-08-30T08:32:43.691Z,34.57
2018-08-30T08:33:47.128Z,30.73
2018-08-30T08:34:50.475Z,34.13
2018-08-30T08:35:54.077Z,33.90
2018-08-30T08:36:57.553Z,39.80
2018-08-30T08:38:01.119Z,28.17
2018-08-30T08:39:05.701Z,36.00
2018-08-30T08:40:09.264Z,33.80
2018-08-30T08:41:12.701Z,30.27
2018-08-30T08:42:16.090Z,30.53
2018-08-30T08:43:19.806Z,32.73
2018-08-30T08:44:23.514Z,26.47
2018-08-30T08:45:26.993Z,30.90
2018-08-30T08:46:30.538Z,28.10
2018-08-30T08:47:34.237Z,29.23
2018-08-30T08:48:37.619Z,29.13
2018-08-30T08:49:41.262Z,34.67
2018-08-30T08:50:44.953Z,32.67
2018-08-30T08:51:48.532Z,34.77
2018-08-30T08:52:52.555Z,38.17
2018-08-30T08:53:55.961Z,36.93
2018-08-30T08:54:59.399Z,36.33
2018-08-30T08:56:02.928Z,33.07
2018-08-30T08:57:06.462Z,34.27
2018-08-30T08:58:10.033Z,38.10
2018-08-30T08:59:13.649Z,33.97
2018-08-30T09:00:16.979Z,34.67
2018-08-30T09:01:20.580Z,39.55
2018-08-30T09:02:24.163Z,36.40
2018-08-30T09:04:30.561Z,39.20
2018-08-30T09:07:39.788Z,31.70
2018-08-30T09:08:43.364Z,34.90
2018-08-30T09:23:24.240Z,29.93
2018-08-30T09:24:27.612Z,32.15
2018-08-30T09:25:31.296Z,36.25
2018-08-30T09:26:35.058Z,31.95
2018-08-30T09:27:38.471Z,31.00
2018-08-30T09:28:42.126Z,29.20
2018-08-30T09:29:45.619Z,34.60
2018-08-30T09:30:49.183Z,30.45
2018-08-30T09:31:52.808Z,35.30
2018-08-30T09:32:56.248Z,32.90
2018-08-30T09:34:00.082Z,31.30
2018-08-30T09:36:06.958Z,29.27
2018-08-30T09:48:45.771Z,30.00
2018-08-30T09:49:49.526Z,26.65
2018-08-30T09:52:58.443Z,29.00
2018-08-30T09:56:07.970Z,22.90
2018-08-30T10:04:48.456Z,23.65
2018-08-30T10:05:51.886Z,27.93
2018-08-30T10:06:55.271Z,28.40
2018-08-30T10:11:07.258Z,23.30
2018-08-30T10:45:44.175Z,24.10
2018-08-30T10:46:47.700Z,24.57
2018-08-30T10:47:51.151Z,22.83
2018-08-30T10:48:54.580Z,26.27
2018-08-30T10:49:58.318Z,23.70
2018-08-30T10:58:22.997Z,20.40
2018-08-30T10:59:26.514Z,26.50
2018-08-30T11:00:33.502Z,23.25
2018-08-30T11:01:37.276Z,25.70
2018-08-30T11:02:40.855Z,24.40
2018-08-30T11:03:44.488Z,26.25
2018-08-30T11:04:48.242Z,24.05
2018-08-30T11:05:52.255Z,25.47
2018-08-30T11:06:56.450Z,25.30
2018-08-30T11:10:06.285Z,22.40
2018-08-30T11:11:09.720Z,22.20
2018-08-30T11:12:13.162Z,23.00
2018-08-30T11:13:16.681Z,21.62
2018-08-30T11:14:20.376Z,21.73
2018-08-30T11:15:23.864Z,21.53
2018-08-30T11:16:27.289Z,20.37
2018-08-30T11:17:30.715Z,19.07
2018-08-30T11:18:34.334Z,23.67
2018-08-30T11:19:37.730Z,19.10
2018-08-30T11:33:15.870Z,16.30
2018-08-30T11:34:19.359Z,17.40
2018-08-30T11:54:16.773Z,13.57
2018-08-30T11:55:20.446Z,14.60
2018-08-30T11:56:23.838Z,12.27
2018-08-30T11:57:27.384Z,13.80
2018-08-30T11:58:31.080Z,12.60
2018-08-30T11:59:34.535Z,11.40
2018-08-30T12:00:38.161Z,13.93
2018-08-30T12:01:41.915Z,12.37
2018-08-30T12:02:45.875Z,12.53
2018-08-30T12:03:49.951Z,12.77
2018-08-30T12:04:53.744Z,13.70
2018-08-30T12:05:57.373Z,15.77
2018-08-30T12:07:01.193Z,13.30
2018-08-30T12:08:05.584Z,11.40
2018-08-30T12:42:47.025Z,13.50
2018-08-30T12:53:18.015Z,10.60
2018-08-30T13:03:54.323Z,8.50
2018-08-30T13:06:01.068Z,9.95
2018-08-30T13:07:04.879Z,9.07
2018-08-30T13:08:14.564Z,10.90
2018-08-30T13:09:19.412Z,10.83
2018-08-30T13:10:23.721Z,10.47
2018-08-30T13:11:28.209Z,10.93
2018-08-30T13:12:32.933Z,11.53
2018-08-30T13:13:36.775Z,11.00
2018-08-30T13:14:40.946Z,11.75
2018-08-30T13:15:45.101Z,13.37
2018-08-30T13:16:49.617Z,12.00
2018-08-30T13:17:54.056Z,11.83
2018-08-30T13:18:58.029Z,12.70
2018-08-30T13:20:02.346Z,12.90
2018-08-30T13:26:22.317Z,15.40
2018-08-30T13:27:25.546Z,15.55
2018-08-30T13:28:29.061Z,15.60
2018-08-30T13:29:32.639Z,18.23
2018-08-30T13:30:36.073Z,19.37
2018-08-30T13:31:39.879Z,15.73
2018-08-30T13:32:44.129Z,15.27
2018-08-30T13:33:47.939Z,14.53
2018-08-30T13:34:51.506Z,16.40
2018-08-30T13:35:55.023Z,14.60
2018-08-30T13:36:58.955Z,14.40
2018-08-30T13:38:02.611Z,17.60
2018-08-30T13:39:10.204Z,12.15
2018-08-30T13:40:13.919Z,16.67
2018-08-30T13:41:17.572Z,16.17
2018-08-30T13:42:21.313Z,14.53
2018-08-30T13:43:26.174Z,16.27
2018-08-30T13:44:31.553Z,15.53
2018-08-30T13:45:36.272Z,13.90
2018-08-30T13:46:41.856Z,16.00
2018-08-30T16:07:15.329Z,9.20
2018-08-30T16:17:44.057Z,11.10
2018-08-30T16:20:52.995Z,10.10
2018-08-30T16:21:56.540Z,10.57
2018-08-30T16:23:08.392Z,12.30
2018-08-30T16:24:11.940Z,8.13
2018-08-30T16:25:15.774Z,11.77
2018-08-30T16:26:19.355Z,10.60
2018-08-30T16:27:22.900Z,11.57
2018-08-30T16:32:38.761Z,13.80
2018-08-30T16:33:42.167Z,12.20
2018-08-30T16:34:45.706Z,10.75
2018-08-30T16:38:57.896Z,12.60
2018-08-30T16:40:01.379Z,8.03
2018-08-30T16:41:04.917Z,8.17
2018-08-30T16:42:08.567Z,14.30
2018-08-30T16:43:12.029Z,8.50
2018-08-30T16:44:15.399Z,11.27
2018-08-30T16:45:18.892Z,9.70
2018-08-30T16:46:22.331Z,10.50
2018-08-30T16:47:25.675Z,9.07
2018-08-30T16:48:29.357Z,9.17
2018-08-30T16:49:32.887Z,9.23
2018-08-30T16:50:36.395Z,7.97
2018-08-30T16:51:39.782Z,8.50
2018-08-30T16:52:43.291Z,7.73
2018-08-30T16:53:46.908Z,8.40
2018-08-30T16:54:50.311Z,12.13
2018-08-30T16:55:53.783Z,7.93
2018-08-30T16:56:57.286Z,12.77
2018-08-30T16:58:00.643Z,15.13
2018-08-30T16:59:04.295Z,11.43
2018-08-30T17:00:07.801Z,7.97
2018-08-30T17:01:11.502Z,11.80
2018-08-30T17:02:14.974Z,12.30
2018-08-30T17:03:18.278Z,11.50
2018-08-30T17:04:22.019Z,9.37
2018-08-30T17:05:25.529Z,9.53
2018-08-30T17:06:28.994Z,9.50
2018-08-30T17:07:32.454Z,14.27
2018-08-30T17:08:36.057Z,9.97
2018-08-30T17:09:40.065Z,11.73
2018-08-30T17:10:43.780Z,16.60
2018-08-30T17:11:47.231Z,11.10
2018-08-30T17:12:50.663Z,10.87
2018-08-30T17:13:54.231Z,9.80
2018-08-30T17:14:57.871Z,11.83
2018-08-30T17:16:01.304Z,13.30
2018-08-30T17:17:04.935Z,12.30
2018-08-30T17:18:08.621Z,10.57
2018-08-30T17:19:19.398Z,11.30
2018-08-30T17:20:36.984Z,9.50
2018-08-30T17:21:47.770Z,10.23
2018-08-30T17:22:51.236Z,10.17
2018-08-30T17:23:54.619Z,9.77
2018-08-30T17:24:58.099Z,12.90
2018-08-30T17:26:01.648Z,7.23
2018-08-30T17:27:05.471Z,13.87
2018-08-30T17:28:08.840Z,11.77
2018-08-30T17:29:12.280Z,14.90
2018-08-30T17:30:15.873Z,13.43
2018-08-30T17:31:19.467Z,12.73
2018-08-30T17:32:22.829Z,9.77
2018-08-30T17:33:26.398Z,13.67
2018-08-30T17:34:29.725Z,10.17
2018-08-30T17:35:33.182Z,12.87
2018-08-30T17:36:36.515Z,10.30
2018-08-30T17:37:39.892Z,10.90
2018-08-30T17:38:43.340Z,12.60
2018-08-30T17:39:46.722Z,10.80
2018-08-30T17:40:50.199Z,9.23
2018-08-30T17:41:53.633Z,13.30
2018-08-30T17:42:57.088Z,11.63
2018-08-30T17:44:00.696Z,12.70
2018-08-30T17:45:04.592Z,12.97
2018-08-30T17:46:08.339Z,12.20
2018-08-30T17:47:11.777Z,12.83
2018-08-30T17:48:16.690Z,9.83
2018-08-30T17:49:20.505Z,15.13
2018-08-30T17:50:24.205Z,9.73
2018-08-30T17:51:27.445Z,13.10
2018-08-30T17:52:31.076Z,13.97
2018-08-30T17:53:34.540Z,10.37
2018-08-30T17:54:38.082Z,9.83
2018-08-30T17:55:41.655Z,15.97
2018-08-30T17:56:44.966Z,9.50
2018-08-30T17:57:48.350Z,12.97
2018-08-30T17:58:51.872Z,14.97
2018-08-30T17:59:55.297Z,10.17
2018-08-30T18:00:58.975Z,9.57
2018-08-30T18:02:02.544Z,17.37
2018-08-30T18:03:06.059Z,12.80
2018-08-30T18:04:09.590Z,12.60
2018-08-30T18:05:13.778Z,8.67
2018-08-30T18:06:17.155Z,6.73
2018-08-30T18:07:21.002Z,9.87
2018-08-30T18:08:24.452Z,10.53
2018-08-30T18:09:28.001Z,8.67
2018-08-30T18:10:31.479Z,9.77
2018-08-30T18:11:35.187Z,13.73
2018-08-30T18:12:39.702Z,12.00
2018-08-30T18:13:43.215Z,9.33
2018-08-30T18:14:46.813Z,13.20
2018-08-30T18:15:50.358Z,11.33
2018-08-30T18:16:53.713Z,12.40
2018-08-30T18:17:57.079Z,14.30
2018-08-30T18:19:00.630Z,14.27
2018-08-30T18:20:04.488Z,12.23
2018-08-30T18:21:07.963Z,19.20
2018-08-30T18:22:11.748Z,12.10
2018-08-30T18:23:15.337Z,14.00
2018-08-30T18:24:18.813Z,11.33
2018-08-30T18:25:22.591Z,11.70
2018-08-30T18:26:26.295Z,13.33
2018-08-30T18:27:29.868Z,13.47
2018-08-30T18:28:33.453Z,13.73
2018-08-30T18:29:36.878Z,10.43
2018-08-30T18:30:40.427Z,12.37
2018-08-30T18:31:44.097Z,11.57
2018-08-30T18:32:47.510Z,9.70
2018-08-30T18:33:51.097Z,15.23
2018-08-30T18:34:54.732Z,10.03
2018-08-30T18:35:58.227Z,9.83
2018-08-30T18:37:01.575Z,14.47
2018-08-30T18:38:05.157Z,8.77
2018-08-30T18:39:10.178Z,14.77
2018-08-30T18:40:14.256Z,14.70
2018-08-30T18:41:17.993Z,14.43
2018-08-30T18:42:21.659Z,11.50
2018-08-30T18:43:25.323Z,12.27
2018-08-30T18:44:28.889Z,11.07
2018-08-30T18:45:32.347Z,9.63
2018-08-30T18:46:36.416Z,10.50
2018-08-30T18:47:39.857Z,13.80
2018-08-30T18:48:43.384Z,13.33
2018-08-30T18:49:47.178Z,11.57
2018-08-30T18:50:50.655Z,13.23
2018-08-30T18:51:54.551Z,13.33
2018-08-30T18:52:58.325Z,12.03
2018-08-30T18:54:01.745Z,14.47
2018-08-30T18:55:05.240Z,13.67
2018-08-30T18:56:08.816Z,13.07
2018-08-30T18:57:12.324Z,15.37
2018-08-30T18:58:15.868Z,10.50
2018-08-30T18:59:19.250Z,17.67
2018-08-30T19:00:22.794Z,17.63
2018-08-30T19:01:26.285Z,12.93
2018-08-30T19:02:29.821Z,17.67
2018-08-30T19:03:33.125Z,18.37
2018-08-30T19:04:36.602Z,18.37
2018-08-30T19:05:39.951Z,13.70
2018-08-30T19:06:43.524Z,18.67
2018-08-30T19:07:46.932Z,12.43
2018-08-30T19:08:50.590Z,15.30
2018-08-30T19:09:54.076Z,14.93
2018-08-30T19:10:57.479Z,14.67
2018-08-30T19:12:01.313Z,14.97
2018-08-30T19:13:04.935Z,12.73
2018-08-30T19:14:08.523Z,11.37
2018-08-30T19:16:21.162Z,8.17
2018-08-30T19:17:30.427Z,15.00
2018-08-30T19:18:39.549Z,11.63
2018-08-30T19:19:43.282Z,9.63
2018-08-30T19:20:47.180Z,11.00
2018-08-30T19:21:50.851Z,17.90
2018-08-30T19:22:54.309Z,16.97
2018-08-30T19:23:57.792Z,10.00
2018-08-30T19:25:06.758Z,11.33
2018-08-30T19:26:10.402Z,14.30
2018-08-30T19:27:14.505Z,9.73
2018-08-30T19:28:18.334Z,11.63
2018-08-30T19:29:22.325Z,13.23
2018-08-30T19:30:28.264Z,12.03
2018-08-30T19:31:31.887Z,12.47
2018-08-30T19:32:35.260Z,9.97
2018-08-30T19:33:38.773Z,14.33
2018-08-30T19:34:42.200Z,17.97
2018-08-30T19:35:51.587Z,10.30
2018-08-30T19:36:55.119Z,11.67
2018-08-30T19:37:58.492Z,19.13
2018-08-30T19:39:02.815Z,9.33
2018-08-30T19:40:10.350Z,12.47
2018-08-30T19:41:17.833Z,9.47
2018-08-30T19:42:21.196Z,13.13
2018-08-30T19:43:24.764Z,10.93
2018-08-30T19:44:28.159Z,12.50
2018-08-30T19:45:31.605Z,11.60
2018-08-30T19:46:35.065Z,15.77
2018-08-30T19:47:38.687Z,10.60
2018-08-30T19:48:42.316Z,14.73
2018-08-30T19:49:45.958Z,12.00
2018-08-30T19:50:49.604Z,14.17
2018-08-30T19:51:52.989Z,18.23
2018-08-30T19:52:56.875Z,11.70
2018-08-30T19:54:00.551Z,12.40
2018-08-30T19:55:04.251Z,12.70
2018-08-30T19:56:08.179Z,8.13
2018-08-30T19:57:12.206Z,11.00
2018-08-30T19:58:15.984Z,14.33
2018-08-30T19:59:19.852Z,11.57
2018-08-30T20:00:23.831Z,10.33
2018-08-30T20:01:27.522Z,11.33
2018-08-30T20:02:31.121Z,13.63
2018-08-30T20:03:34.671Z,14.23
2018-08-30T20:04:38.198Z,14.50
2018-08-30T20:05:41.786Z,12.13
2018-08-30T20:06:45.505Z,10.50
2018-08-30T20:07:48.976Z,12.70
2018-08-30T20:08:52.660Z,9.80
2018-08-30T20:09:56.192Z,12.43
2018-08-30T20:10:59.937Z,9.70
2018-08-30T20:12:03.425Z,11.83
2018-08-30T20:13:11.523Z,10.17
2018-08-30T20:14:15.122Z,10.67
2018-08-30T20:15:18.846Z,11.17
2018-08-30T20:16:22.405Z,9.17
2018-08-30T20:17:25.925Z,12.60
2018-08-30T20:18:29.512Z,9.37
2018-08-30T20:19:32.871Z,10.63
2018-08-30T20:20:36.242Z,10.03
2018-08-30T20:21:39.825Z,10.43
2018-08-30T20:22:43.718Z,10.40
2018-08-30T20:23:47.189Z,9.03
2018-08-30T20:24:50.764Z,12.17
2018-08-30T20:25:54.512Z,16.30
2018-08-30T20:26:58.220Z,8.47
2018-08-30T20:28:01.601Z,11.67
2018-08-30T20:29:05.434Z,11.50
2018-08-30T20:30:08.931Z,12.67
2018-08-30T20:31:13.398Z,12.37
2018-08-30T20:32:17.160Z,9.60
2018-08-30T20:33:20.924Z,11.50
2018-08-30T20:34:24.277Z,11.23
2018-08-30T20:35:27.796Z,10.70
2018-08-30T20:36:31.232Z,12.33
2018-08-30T20:37:34.810Z,14.13
2018-08-30T20:38:38.402Z,10.73
2018-08-30T20:39:42.110Z,12.23
2018-08-30T20:40:45.926Z,12.57
2018-08-30T20:41:49.528Z,12.70
2018-08-30T20:42:53.216Z,11.73
2018-08-30T20:43:56.945Z,9.87
2018-08-30T20:45:00.645Z,9.40
2018-08-30T20:46:04.224Z,10.80
2018-08-30T20:47:08.120Z,11.97
2018-08-30T20:48:11.805Z,10.97
2018-08-30T20:49:15.572Z,14.33
2018-08-30T20:50:18.990Z,10.07
2018-08-30T20:51:22.560Z,9.53
2018-08-30T20:52:26.359Z,12.97
2018-08-30T20:53:29.976Z,10.60
2018-08-30T20:54:33.531Z,12.77
2018-08-30T20:55:37.064Z,8.17
2018-08-30T20:56:40.880Z,14.83
2018-08-30T20:57:44.553Z,9.43
2018-08-30T20:58:47.936Z,14.97
2018-08-30T20:59:51.714Z,11.77
2018-08-30T21:00:55.140Z,11.67
2018-08-30T21:01:58.695Z,11.27
2018-08-30T21:03:02.335Z,13.57
2018-08-30T21:04:06.388Z,8.97
2018-08-30T21:05:10.324Z,14.43
2018-08-30T21:06:13.750Z,17.47
2018-08-30T21:07:17.498Z,12.73
2018-08-30T21:08:21.004Z,9.87
2018-08-30T21:09:24.557Z,11.10
2018-08-30T21:10:35.000Z,6.97
2018-08-30T21:11:39.149Z,6.77
2018-08-30T21:12:49.245Z,13.63
2018-08-30T21:13:53.011Z,11.70
2018-08-30T21:14:56.536Z,13.23
2018-08-30T21:16:00.132Z,13.43
2018-08-30T21:17:03.818Z,9.87
2018-08-30T21:18:07.578Z,14.70
2018-08-30T21:19:11.294Z,10.00
2018-08-30T21:20:14.904Z,14.13
2018-08-30T21:21:18.591Z,13.33
2018-08-30T21:22:21.975Z,13.53
2018-08-30T21:23:25.608Z,9.03
2018-08-30T21:24:29.104Z,10.90
2018-08-30T21:25:32.600Z,12.47
2018-08-30T21:26:35.936Z,10.77
2018-08-30T21:28:52.024Z,14.20
2018-08-30T21:29:55.572Z,9.80
2018-08-30T21:30:59.381Z,13.43
2018-08-30T21:32:03.113Z,10.97
2018-08-30T21:33:06.742Z,15.20
2018-08-30T21:34:10.602Z,12.30
2018-08-30T21:35:14.191Z,11.77
2018-08-30T21:36:18.097Z,10.27
2018-08-30T21:37:21.474Z,14.63
2018-08-30T21:39:39.711Z,11.80
2018-08-30T21:40:43.128Z,8.10
2018-08-30T21:41:46.701Z,15.10
2018-08-30T21:42:51.833Z,12.93
2018-08-30T21:43:55.252Z,11.97
2018-08-30T21:44:58.667Z,10.63
2018-08-30T21:46:02.134Z,14.00
2018-08-30T21:47:05.640Z,12.67
2018-08-30T21:48:09.295Z,10.00
2018-08-30T21:49:12.854Z,11.87
2018-08-30T21:50:16.321Z,11.17
2018-08-30T21:51:20.148Z,12.83
2018-08-30T21:52:23.555Z,13.37
2018-08-30T21:53:26.919Z,13.73
2018-08-30T21:54:30.504Z,9.40
2018-08-30T21:55:33.930Z,9.63
2018-08-30T21:56:37.384Z,11.00
2018-08-30T21:57:40.768Z,15.57
2018-08-30T21:58:44.220Z,11.30
2018-08-30T21:59:47.667Z,12.43
2018-08-30T22:00:51.583Z,9.27
2018-08-30T22:01:55.036Z,15.80
2018-08-30T22:02:58.653Z,13.90
2018-08-30T22:04:02.238Z,10.77
2018-08-30T22:05:23.969Z,10.03
2018-08-30T22:06:27.416Z,13.33
2018-08-30T22:07:31.518Z,9.13
2018-08-30T22:08:34.936Z,12.93
2018-08-30T22:09:38.722Z,16.73
2018-08-30T22:10:42.275Z,14.70
2018-08-30T22:11:45.807Z,10.93
2018-08-30T22:12:49.204Z,9.67
2018-08-30T22:13:52.605Z,11.00
2018-08-30T22:14:56.125Z,14.43
2018-08-30T22:15:59.475Z,13.33
2018-08-30T22:17:02.911Z,11.17
2018-08-30T22:18:06.370Z,12.83
2018-08-30T22:19:09.710Z,13.40
2018-08-30T22:20:13.082Z,9.77
2018-08-30T22:21:16.556Z,12.10
2018-08-30T22:22:19.947Z,9.77
2018-08-30T22:23:23.510Z,11.53
2018-08-30T22:24:26.967Z,9.17
2018-08-30T22:25:30.214Z,9.43